sensor_id;sensor_type;location;lat;lon;timestamp;P1;durP1;ratioP1;P2;durP2;ratioP2
295;SDS011;132;48.770;9.200;2024-01-11T00:00:57;66.05;;;27.80;;
295;SDS011;132;48.770;9.200;2024-01-11T00:03:45;70.25;;;28.33;;
295;SDS011;132;48.770;9.200;2024-01-11T00:06:31;75.00;;;29.45;;
295;SDS011;132;48.770;9.200;2024-01-11T00:09:18;67.68;;;28.33;;
295;SDS011;132;48.770;9.200;2024-01-11T00:12:05;62.40;;;27.67;;
295;SDS011;132;48.770;9.200;2024-01-11T00:14:52;69.68;;;28.90;;
295;SDS011;132;48.770;9.200;2024-01-11T00:17:39;66.03;;;28.75;;
295;SDS011;132;48.770;9.200;2024-01-11T00:20:25;75.78;;;31.27;;
295;SDS011;132;48.770;9.200;2024-01-11T00:23:12;71.43;;;29.50;;
295;SDS011;132;48.770;9.200;2024-01-11T00:25:59;66.95;;;29.85;;
295;SDS011;132;48.770;9.200;2024-01-11T00:28:45;58.95;;;28.02;;
295;SDS011;132;48.770;9.200;2024-01-11T00:31:32;67.93;;;27.75;;
295;SDS011;132;48.770;9.200;2024-01-11T00:34:19;70.75;;;29.67;;
295;SDS011;132;48.770;9.200;2024-01-11T00:37:05;73.40;;;28.88;;
295;SDS011;132;48.770;9.200;2024-01-11T00:39:52;66.25;;;29.50;;
295;SDS011;132;48.770;9.200;2024-01-11T00:42:39;65.65;;;27.45;;
295;SDS011;132;48.770;9.200;2024-01-11T00:45:25;70.32;;;29.42;;
295;SDS011;132;48.770;9.200;2024-01-11T00:48:12;71.45;;;30.23;;
295;SDS011;132;48.770;9.200;2024-01-11T00:50:59;73.40;;;29.73;;
295;SDS011;132;48.770;9.200;2024-01-11T00:53:45;74.55;;;30.77;;
295;SDS011;132;48.770;9.200;2024-01-11T00:56:32;65.82;;;27.15;;
295;SDS011;132;48.770;9.200;2024-01-11T00:59:19;67.32;;;29.13;;
295;SDS011;132;48.770;9.200;2024-01-11T01:02:05;72.50;;;29.90;;
295;SDS011;132;48.770;9.200;2024-01-11T01:04:52;72.55;;;28.83;;
295;SDS011;132;48.770;9.200;2024-01-11T01:07:39;70.50;;;30.02;;
295;SDS011;132;48.770;9.200;2024-01-11T01:10:26;75.05;;;31.70;;
295;SDS011;132;48.770;9.200;2024-01-11T01:13:12;73.03;;;30.77;;
295;SDS011;132;48.770;9.200;2024-01-11T01:15:59;66.60;;;30.35;;
295;SDS011;132;48.770;9.200;2024-01-11T01:18:46;76.43;;;30.38;;
295;SDS011;132;48.770;9.200;2024-01-11T01:21:33;77.38;;;32.83;;
295;SDS011;132;48.770;9.200;2024-01-11T01:24:19;71.88;;;30.23;;
295;SDS011;132;48.770;9.200;2024-01-11T01:27:06;68.40;;;29.33;;
295;SDS011;132;48.770;9.200;2024-01-11T01:29:53;72.53;;;29.77;;
295;SDS011;132;48.770;9.200;2024-01-11T01:32:39;65.93;;;29.13;;
295;SDS011;132;48.770;9.200;2024-01-11T01:35:26;70.20;;;30.08;;
295;SDS011;132;48.770;9.200;2024-01-11T01:38:13;73.60;;;29.65;;
295;SDS011;132;48.770;9.200;2024-01-11T01:40:59;70.57;;;28.67;;
295;SDS011;132;48.770;9.200;2024-01-11T01:43:46;70.50;;;30.02;;
295;SDS011;132;48.770;9.200;2024-01-11T01:46:32;68.90;;;28.10;;
295;SDS011;132;48.770;9.200;2024-01-11T01:49:20;74.63;;;28.88;;
295;SDS011;132;48.770;9.200;2024-01-11T01:52:08;70.57;;;29.30;;
295;SDS011;132;48.770;9.200;2024-01-11T01:54:56;66.32;;;29.10;;
295;SDS011;132;48.770;9.200;2024-01-11T01:57:44;68.50;;;28.52;;
295;SDS011;132;48.770;9.200;2024-01-11T02:00:33;76.47;;;30.52;;
295;SDS011;132;48.770;9.200;2024-01-11T02:03:23;73.95;;;31.33;;
295;SDS011;132;48.770;9.200;2024-01-11T02:06:11;63.42;;;27.35;;
295;SDS011;132;48.770;9.200;2024-01-11T02:09:00;80.30;;;32.03;;
295;SDS011;132;48.770;9.200;2024-01-11T02:11:50;76.85;;;30.75;;
295;SDS011;132;48.770;9.200;2024-01-11T02:14:39;63.08;;;28.25;;
295;SDS011;132;48.770;9.200;2024-01-11T02:17:26;72.50;;;31.40;;
295;SDS011;132;48.770;9.200;2024-01-11T02:20:13;70.90;;;30.52;;
295;SDS011;132;48.770;9.200;2024-01-11T02:23:01;79.07;;;32.42;;
295;SDS011;132;48.770;9.200;2024-01-11T02:25:51;78.22;;;30.90;;
295;SDS011;132;48.770;9.200;2024-01-11T02:28:38;71.60;;;30.95;;
295;SDS011;132;48.770;9.200;2024-01-11T02:31:25;76.22;;;29.42;;
295;SDS011;132;48.770;9.200;2024-01-11T02:34:11;70.38;;;28.40;;
295;SDS011;132;48.770;9.200;2024-01-11T02:36:58;70.88;;;30.02;;
295;SDS011;132;48.770;9.200;2024-01-11T02:39:45;70.25;;;30.00;;
295;SDS011;132;48.770;9.200;2024-01-11T02:42:32;72.22;;;30.25;;
295;SDS011;132;48.770;9.200;2024-01-11T02:45:18;78.60;;;30.55;;
295;SDS011;132;48.770;9.200;2024-01-11T02:48:05;80.40;;;31.88;;
295;SDS011;132;48.770;9.200;2024-01-11T02:50:52;72.85;;;30.65;;
295;SDS011;132;48.770;9.200;2024-01-11T02:53:38;80.18;;;33.28;;
295;SDS011;132;48.770;9.200;2024-01-11T02:56:25;79.53;;;30.25;;
295;SDS011;132;48.770;9.200;2024-01-11T02:59:12;79.88;;;32.90;;
295;SDS011;132;48.770;9.200;2024-01-11T03:01:58;82.80;;;32.55;;
295;SDS011;132;48.770;9.200;2024-01-11T03:04:45;72.32;;;31.77;;
295;SDS011;132;48.770;9.200;2024-01-11T03:07:31;71.65;;;32.13;;
295;SDS011;132;48.770;9.200;2024-01-11T03:10:19;67.57;;;30.08;;
295;SDS011;132;48.770;9.200;2024-01-11T03:13:06;76.55;;;31.85;;
295;SDS011;132;48.770;9.200;2024-01-11T03:15:53;79.93;;;32.70;;
295;SDS011;132;48.770;9.200;2024-01-11T03:18:40;69.28;;;28.98;;
295;SDS011;132;48.770;9.200;2024-01-11T03:21:26;77.38;;;31.90;;
295;SDS011;132;48.770;9.200;2024-01-11T03:24:13;72.65;;;31.80;;
295;SDS011;132;48.770;9.200;2024-01-11T03:27:00;78.70;;;30.98;;
295;SDS011;132;48.770;9.200;2024-01-11T03:29:46;75.40;;;32.83;;
295;SDS011;132;48.770;9.200;2024-01-11T03:32:33;68.57;;;29.77;;
295;SDS011;132;48.770;9.200;2024-01-11T03:35:20;78.80;;;30.80;;
295;SDS011;132;48.770;9.200;2024-01-11T03:38:06;72.22;;;30.25;;
295;SDS011;132;48.770;9.200;2024-01-11T03:40:53;70.93;;;29.05;;
295;SDS011;132;48.770;9.200;2024-01-11T03:43:39;77.22;;;31.90;;
295;SDS011;132;48.770;9.200;2024-01-11T03:46:26;71.82;;;30.17;;
295;SDS011;132;48.770;9.200;2024-01-11T03:49:13;81.57;;;32.38;;
295;SDS011;132;48.770;9.200;2024-01-11T03:52:00;69.00;;;30.10;;
295;SDS011;132;48.770;9.200;2024-01-11T03:54:47;71.35;;;28.35;;
295;SDS011;132;48.770;9.200;2024-01-11T03:57:33;78.65;;;31.38;;
295;SDS011;132;48.770;9.200;2024-01-11T04:00:21;73.45;;;29.73;;
295;SDS011;132;48.770;9.200;2024-01-11T04:03:07;70.05;;;29.63;;
295;SDS011;132;48.770;9.200;2024-01-11T04:05:54;80.57;;;32.70;;
295;SDS011;132;48.770;9.200;2024-01-11T04:08:40;71.60;;;30.33;;
295;SDS011;132;48.770;9.200;2024-01-11T04:11:27;84.07;;;32.97;;
295;SDS011;132;48.770;9.200;2024-01-11T04:14:14;81.18;;;32.65;;
295;SDS011;132;48.770;9.200;2024-01-11T04:17:01;67.90;;;29.73;;
295;SDS011;132;48.770;9.200;2024-01-11T04:19:47;68.45;;;29.98;;
295;SDS011;132;48.770;9.200;2024-01-11T04:22:34;80.30;;;32.22;;
295;SDS011;132;48.770;9.200;2024-01-11T04:25:21;71.80;;;30.33;;
295;SDS011;132;48.770;9.200;2024-01-11T04:28:08;73.45;;;31.27;;
295;SDS011;132;48.770;9.200;2024-01-11T04:30:55;80.80;;;31.45;;
295;SDS011;132;48.770;9.200;2024-01-11T04:33:45;76.45;;;30.83;;
295;SDS011;132;48.770;9.200;2024-01-11T04:36:32;75.32;;;31.50;;
295;SDS011;132;48.770;9.200;2024-01-11T04:39:19;84.90;;;31.45;;
295;SDS011;132;48.770;9.200;2024-01-11T04:42:05;77.72;;;30.23;;
295;SDS011;132;48.770;9.200;2024-01-11T04:44:52;76.40;;;31.25;;
295;SDS011;132;48.770;9.200;2024-01-11T04:47:39;80.28;;;31.48;;
295;SDS011;132;48.770;9.200;2024-01-11T04:50:26;74.32;;;31.25;;
295;SDS011;132;48.770;9.200;2024-01-11T04:53:13;86.63;;;30.45;;
295;SDS011;132;48.770;9.200;2024-01-11T04:56:00;70.22;;;30.85;;
295;SDS011;132;48.770;9.200;2024-01-11T04:58:47;75.38;;;31.15;;
295;SDS011;132;48.770;9.200;2024-01-11T05:01:33;70.13;;;29.75;;
295;SDS011;132;48.770;9.200;2024-01-11T05:04:20;77.68;;;32.53;;
295;SDS011;132;48.770;9.200;2024-01-11T05:07:06;79.47;;;30.58;;
295;SDS011;132;48.770;9.200;2024-01-11T05:09:53;72.85;;;30.27;;
295;SDS011;132;48.770;9.200;2024-01-11T05:12:40;75.53;;;31.90;;
295;SDS011;132;48.770;9.200;2024-01-11T05:15:26;78.93;;;32.60;;
295;SDS011;132;48.770;9.200;2024-01-11T05:18:13;82.25;;;31.88;;
295;SDS011;132;48.770;9.200;2024-01-11T05:21:00;78.85;;;32.28;;
295;SDS011;132;48.770;9.200;2024-01-11T05:23:46;80.10;;;32.50;;
295;SDS011;132;48.770;9.200;2024-01-11T05:26:34;79.43;;;31.67;;
295;SDS011;132;48.770;9.200;2024-01-11T05:29:21;73.93;;;29.85;;
295;SDS011;132;48.770;9.200;2024-01-11T05:32:07;76.22;;;30.52;;
295;SDS011;132;48.770;9.200;2024-01-11T05:34:54;79.43;;;32.75;;
295;SDS011;132;48.770;9.200;2024-01-11T05:37:41;86.88;;;33.28;;
295;SDS011;132;48.770;9.200;2024-01-11T05:40:28;82.15;;;33.40;;
295;SDS011;132;48.770;9.200;2024-01-11T05:43:15;84.88;;;33.70;;
295;SDS011;132;48.770;9.200;2024-01-11T05:46:01;72.95;;;31.27;;
295;SDS011;132;48.770;9.200;2024-01-11T05:48:48;77.45;;;29.05;;
295;SDS011;132;48.770;9.200;2024-01-11T05:51:35;80.75;;;32.10;;
295;SDS011;132;48.770;9.200;2024-01-11T05:54:21;73.07;;;31.35;;
295;SDS011;132;48.770;9.200;2024-01-11T05:57:08;78.38;;;31.27;;
295;SDS011;132;48.770;9.200;2024-01-11T05:59:55;84.13;;;32.35;;
295;SDS011;132;48.770;9.200;2024-01-11T06:02:41;82.68;;;31.17;;
295;SDS011;132;48.770;9.200;2024-01-11T06:05:28;74.28;;;30.83;;
295;SDS011;132;48.770;9.200;2024-01-11T06:08:15;79.30;;;32.20;;
295;SDS011;132;48.770;9.200;2024-01-11T06:11:01;72.68;;;30.13;;
295;SDS011;132;48.770;9.200;2024-01-11T06:13:49;76.85;;;31.40;;
295;SDS011;132;48.770;9.200;2024-01-11T06:16:36;73.97;;;30.33;;
295;SDS011;132;48.770;9.200;2024-01-11T06:19:22;69.93;;;28.50;;
295;SDS011;132;48.770;9.200;2024-01-11T06:22:09;65.28;;;29.83;;
295;SDS011;132;48.770;9.200;2024-01-11T06:24:56;79.55;;;32.92;;
295;SDS011;132;48.770;9.200;2024-01-11T06:27:43;75.45;;;30.30;;
295;SDS011;132;48.770;9.200;2024-01-11T06:30:30;89.00;;;31.40;;
295;SDS011;132;48.770;9.200;2024-01-11T06:33:16;83.18;;;32.45;;
295;SDS011;132;48.770;9.200;2024-01-11T06:36:06;87.35;;;34.10;;
295;SDS011;132;48.770;9.200;2024-01-11T06:38:56;78.45;;;32.88;;
295;SDS011;132;48.770;9.200;2024-01-11T06:41:43;83.03;;;33.00;;
295;SDS011;132;48.770;9.200;2024-01-11T06:44:29;77.97;;;30.77;;
295;SDS011;132;48.770;9.200;2024-01-11T06:47:16;77.70;;;32.38;;
295;SDS011;132;48.770;9.200;2024-01-11T06:50:03;81.57;;;31.27;;
295;SDS011;132;48.770;9.200;2024-01-11T06:52:50;91.30;;;33.80;;
295;SDS011;132;48.770;9.200;2024-01-11T06:55:37;80.15;;;32.65;;
295;SDS011;132;48.770;9.200;2024-01-11T06:58:24;83.65;;;33.13;;
295;SDS011;132;48.770;9.200;2024-01-11T07:01:10;79.05;;;31.98;;
295;SDS011;132;48.770;9.200;2024-01-11T07:03:57;74.55;;;29.63;;
295;SDS011;132;48.770;9.200;2024-01-11T07:06:43;79.82;;;31.33;;
295;SDS011;132;48.770;9.200;2024-01-11T07:09:30;74.18;;;31.15;;
295;SDS011;132;48.770;9.200;2024-01-11T07:12:17;79.15;;;32.85;;
295;SDS011;132;48.770;9.200;2024-01-11T07:15:03;82.05;;;33.63;;
295;SDS011;132;48.770;9.200;2024-01-11T07:17:51;74.90;;;31.65;;
295;SDS011;132;48.770;9.200;2024-01-11T07:20:39;73.07;;;29.85;;
295;SDS011;132;48.770;9.200;2024-01-11T07:23:26;78.20;;;30.75;;
295;SDS011;132;48.770;9.200;2024-01-11T07:26:13;83.03;;;33.50;;
295;SDS011;132;48.770;9.200;2024-01-11T07:29:00;84.55;;;33.00;;
295;SDS011;132;48.770;9.200;2024-01-11T07:31:47;80.75;;;30.90;;
295;SDS011;132;48.770;9.200;2024-01-11T07:34:33;79.10;;;30.88;;
295;SDS011;132;48.770;9.200;2024-01-11T07:37:20;82.53;;;32.40;;
295;SDS011;132;48.770;9.200;2024-01-11T07:40:07;76.53;;;32.80;;
295;SDS011;132;48.770;9.200;2024-01-11T07:42:56;75.38;;;29.63;;
295;SDS011;132;48.770;9.200;2024-01-11T07:45:43;83.07;;;32.53;;
295;SDS011;132;48.770;9.200;2024-01-11T07:48:30;93.82;;;35.50;;
295;SDS011;132;48.770;9.200;2024-01-11T07:51:16;86.93;;;33.53;;
295;SDS011;132;48.770;9.200;2024-01-11T07:54:03;74.15;;;30.08;;
295;SDS011;132;48.770;9.200;2024-01-11T07:56:51;78.82;;;33.22;;
295;SDS011;132;48.770;9.200;2024-01-11T07:59:37;83.55;;;32.40;;
295;SDS011;132;48.770;9.200;2024-01-11T08:02:25;77.60;;;31.67;;
295;SDS011;132;48.770;9.200;2024-01-11T08:05:12;79.18;;;34.60;;
295;SDS011;132;48.770;9.200;2024-01-11T08:07:59;75.05;;;30.52;;
295;SDS011;132;48.770;9.200;2024-01-11T08:10:47;75.35;;;31.75;;
295;SDS011;132;48.770;9.200;2024-01-11T08:13:36;78.43;;;31.55;;
295;SDS011;132;48.770;9.200;2024-01-11T08:16:23;79.82;;;32.30;;
295;SDS011;132;48.770;9.200;2024-01-11T08:19:10;76.30;;;32.17;;
295;SDS011;132;48.770;9.200;2024-01-11T08:21:59;67.10;;;29.70;;
295;SDS011;132;48.770;9.200;2024-01-11T08:24:46;82.18;;;33.40;;
295;SDS011;132;48.770;9.200;2024-01-11T08:27:33;74.38;;;33.50;;
295;SDS011;132;48.770;9.200;2024-01-11T08:30:20;73.28;;;29.90;;
295;SDS011;132;48.770;9.200;2024-01-11T08:33:07;75.35;;;32.65;;
295;SDS011;132;48.770;9.200;2024-01-11T08:35:54;77.97;;;32.00;;
295;SDS011;132;48.770;9.200;2024-01-11T08:38:41;77.18;;;32.63;;
295;SDS011;132;48.770;9.200;2024-01-11T08:41:28;74.45;;;32.20;;
295;SDS011;132;48.770;9.200;2024-01-11T08:44:15;78.35;;;33.55;;
295;SDS011;132;48.770;9.200;2024-01-11T08:47:01;77.53;;;32.63;;
295;SDS011;132;48.770;9.200;2024-01-11T08:49:49;69.85;;;30.98;;
295;SDS011;132;48.770;9.200;2024-01-11T08:52:36;79.03;;;34.42;;
295;SDS011;132;48.770;9.200;2024-01-11T08:55:25;82.20;;;34.80;;
295;SDS011;132;48.770;9.200;2024-01-11T08:58:12;84.72;;;35.72;;
295;SDS011;132;48.770;9.200;2024-01-11T09:00:59;77.25;;;32.10;;
295;SDS011;132;48.770;9.200;2024-01-11T09:03:46;72.57;;;31.83;;
295;SDS011;132;48.770;9.200;2024-01-11T09:06:34;73.15;;;30.90;;
295;SDS011;132;48.770;9.200;2024-01-11T09:09:20;72.47;;;31.05;;
295;SDS011;132;48.770;9.200;2024-01-11T09:12:07;77.05;;;33.00;;
295;SDS011;132;48.770;9.200;2024-01-11T09:14:54;78.78;;;30.85;;
295;SDS011;132;48.770;9.200;2024-01-11T09:17:41;71.45;;;31.52;;
295;SDS011;132;48.770;9.200;2024-01-11T09:20:27;70.57;;;32.03;;
295;SDS011;132;48.770;9.200;2024-01-11T09:23:14;77.93;;;33.20;;
295;SDS011;132;48.770;9.200;2024-01-11T09:26:01;74.93;;;31.77;;
295;SDS011;132;48.770;9.200;2024-01-11T09:28:48;78.18;;;32.58;;
295;SDS011;132;48.770;9.200;2024-01-11T09:31:35;77.78;;;33.90;;
295;SDS011;132;48.770;9.200;2024-01-11T09:34:21;77.35;;;33.08;;
295;SDS011;132;48.770;9.200;2024-01-11T09:37:08;72.38;;;31.17;;
295;SDS011;132;48.770;9.200;2024-01-11T09:39:55;76.95;;;34.15;;
295;SDS011;132;48.770;9.200;2024-01-11T09:42:41;76.40;;;33.10;;
295;SDS011;132;48.770;9.200;2024-01-11T09:45:28;72.78;;;31.98;;
295;SDS011;132;48.770;9.200;2024-01-11T09:48:15;84.18;;;34.42;;
295;SDS011;132;48.770;9.200;2024-01-11T09:51:02;76.90;;;33.63;;
295;SDS011;132;48.770;9.200;2024-01-11T09:53:49;78.13;;;33.03;;
295;SDS011;132;48.770;9.200;2024-01-11T09:56:37;79.40;;;35.30;;
295;SDS011;132;48.770;9.200;2024-01-11T09:59:24;69.80;;;32.92;;
295;SDS011;132;48.770;9.200;2024-01-11T10:02:12;81.72;;;35.60;;
295;SDS011;132;48.770;9.200;2024-01-11T10:04:59;74.43;;;32.83;;
295;SDS011;132;48.770;9.200;2024-01-11T10:07:46;79.40;;;34.60;;
295;SDS011;132;48.770;9.200;2024-01-11T10:10:32;76.07;;;33.50;;
295;SDS011;132;48.770;9.200;2024-01-11T10:13:19;83.57;;;35.72;;
295;SDS011;132;48.770;9.200;2024-01-11T10:16:13;73.03;;;32.80;;
295;SDS011;132;48.770;9.200;2024-01-11T10:19:01;79.88;;;35.03;;
295;SDS011;132;48.770;9.200;2024-01-11T10:21:48;82.38;;;34.78;;
295;SDS011;132;48.770;9.200;2024-01-11T10:24:35;76.78;;;34.90;;
295;SDS011;132;48.770;9.200;2024-01-11T10:27:25;70.97;;;32.72;;
295;SDS011;132;48.770;9.200;2024-01-11T10:30:13;80.28;;;38.72;;
295;SDS011;132;48.770;9.200;2024-01-11T10:33:04;98.75;;;80.70;;
295;SDS011;132;48.770;9.200;2024-01-11T10:35:52;77.88;;;35.42;;
295;SDS011;132;48.770;9.200;2024-01-11T10:38:40;67.78;;;33.35;;
295;SDS011;132;48.770;9.200;2024-01-11T10:41:28;214.10;;;203.88;;
295;SDS011;132;48.770;9.200;2024-01-11T10:44:21;456.45;;;434.67;;
295;SDS011;132;48.770;9.200;2024-01-11T10:47:08;315.02;;;299.98;;
295;SDS011;132;48.770;9.200;2024-01-11T10:49:56;310.48;;;295.63;;
295;SDS011;132;48.770;9.200;2024-01-11T10:55:45;359.02;;;341.88;;
295;SDS011;132;48.770;9.200;2024-01-11T10:58:33;366.55;;;349.05;;
295;SDS011;132;48.770;9.200;2024-01-11T11:01:24;171.43;;;163.20;;
295;SDS011;132;48.770;9.200;2024-01-11T11:04:11;379.65;;;361.52;;
295;SDS011;132;48.770;9.200;2024-01-11T11:07:01;622.17;;;592.50;;
295;SDS011;132;48.770;9.200;2024-01-11T11:09:49;789.78;;;752.15;;
295;SDS011;132;48.770;9.200;2024-01-11T11:12:37;898.83;;;855.95;;
295;SDS011;132;48.770;9.200;2024-01-11T11:15:29;948.05;;;902.88;;
295;SDS011;132;48.770;9.200;2024-01-11T11:18:18;993.73;;;946.33;;
295;SDS011;132;48.770;9.200;2024-01-11T11:21:11;1015.60;;;967.20;;
295;SDS011;132;48.770;9.200;2024-01-11T11:23:58;1065.73;;;999.90;;
295;SDS011;132;48.770;9.200;2024-01-11T11:26:45;1047.87;;;997.30;;
295;SDS011;132;48.770;9.200;2024-01-11T11:29:31;1070.70;;;999.90;;
295;SDS011;132;48.770;9.200;2024-01-11T11:32:18;1074.87;;;999.90;;
295;SDS011;132;48.770;9.200;2024-01-11T11:35:24;1076.73;;;999.90;;
295;SDS011;132;48.770;9.200;2024-01-11T11:38:17;1091.33;;;999.90;;
295;SDS011;132;48.770;9.200;2024-01-11T11:41:17;1092.80;;;999.90;;
295;SDS011;132;48.770;9.200;2024-01-11T11:44:05;1096.20;;;999.90;;
295;SDS011;132;48.770;9.200;2024-01-11T11:46:52;1100.37;;;999.90;;
295;SDS011;132;48.770;9.200;2024-01-11T11:52:55;1098.53;;;999.90;;
295;SDS011;132;48.770;9.200;2024-01-11T11:55:45;1111.53;;;999.90;;
295;SDS011;132;48.770;9.200;2024-01-11T11:58:32;1127.37;;;999.90;;
295;SDS011;132;48.770;9.200;2024-01-11T12:01:20;1119.83;;;999.90;;
295;SDS011;132;48.770;9.200;2024-01-11T12:04:08;1135.53;;;999.90;;
295;SDS011;132;48.770;9.200;2024-01-11T12:06:54;1105.77;;;999.90;;
295;SDS011;132;48.770;9.200;2024-01-11T12:09:42;1116.80;;;999.90;;
295;SDS011;132;48.770;9.200;2024-01-11T12:12:28;1117.33;;;999.90;;
295;SDS011;132;48.770;9.200;2024-01-11T12:15:15;1130.90;;;999.90;;
295;SDS011;132;48.770;9.200;2024-01-11T12:18:02;1117.67;;;999.90;;
295;SDS011;132;48.770;9.200;2024-01-11T12:20:49;1102.23;;;999.90;;
295;SDS011;132;48.770;9.200;2024-01-11T12:23:39;1115.77;;;999.90;;
295;SDS011;132;48.770;9.200;2024-01-11T12:26:26;1103.50;;;999.90;;
295;SDS011;132;48.770;9.200;2024-01-11T12:29:13;1087.27;;;999.90;;
295;SDS011;132;48.770;9.200;2024-01-11T12:32:00;1081.03;;;999.90;;
295;SDS011;132;48.770;9.200;2024-01-11T12:34:47;1077.93;;;999.90;;
295;SDS011;132;48.770;9.200;2024-01-11T12:37:34;1020.13;;;971.53;;
295;SDS011;132;48.770;9.200;2024-01-11T12:40:20;57.47;;;39.77;;
295;SDS011;132;48.770;9.200;2024-01-11T12:43:07;57.97;;;36.30;;
295;SDS011;132;48.770;9.200;2024-01-11T12:45:54;57.07;;;32.63;;
295;SDS011;132;48.770;9.200;2024-01-11T12:48:42;63.37;;;39.87;;
295;SDS011;132;48.770;9.200;2024-01-11T12:51:28;231.67;;;220.57;;
295;SDS011;132;48.770;9.200;2024-01-11T12:54:15;868.07;;;826.70;;
295;SDS011;132;48.770;9.200;2024-01-11T12:57:05;863.00;;;821.83;;
295;SDS011;132;48.770;9.200;2024-01-11T12:59:51;930.37;;;886.00;;
295;SDS011;132;48.770;9.200;2024-01-11T13:02:42;931.33;;;886.93;;
295;SDS011;132;48.770;9.200;2024-01-11T13:05:36;936.97;;;892.30;;
295;SDS011;132;48.770;9.200;2024-01-11T13:08:23;950.03;;;904.73;;
295;SDS011;132;48.770;9.200;2024-01-11T13:11:10;973.73;;;927.33;;
295;SDS011;132;48.770;9.200;2024-01-11T13:13:59;981.23;;;934.43;;
295;SDS011;132;48.770;9.200;2024-01-11T13:16:50;927.77;;;883.57;;
295;SDS011;132;48.770;9.200;2024-01-11T13:19:37;903.93;;;860.83;;
295;SDS011;132;48.770;9.200;2024-01-11T13:22:24;880.27;;;838.30;;
295;SDS011;132;48.770;9.200;2024-01-11T13:25:11;884.63;;;842.43;;
295;SDS011;132;48.770;9.200;2024-01-11T13:27:57;893.50;;;850.90;;
295;SDS011;132;48.770;9.200;2024-01-11T13:30:44;902.37;;;859.37;;
295;SDS011;132;48.770;9.200;2024-01-11T13:33:32;868.63;;;827.23;;
295;SDS011;132;48.770;9.200;2024-01-11T13:36:19;852.13;;;811.53;;
295;SDS011;132;48.770;9.200;2024-01-11T13:39:05;810.57;;;771.90;;
295;SDS011;132;48.770;9.200;2024-01-11T13:41:54;788.80;;;751.20;;
295;SDS011;132;48.770;9.200;2024-01-11T13:44:41;775.33;;;738.33;;
295;SDS011;132;48.770;9.200;2024-01-11T13:47:28;687.53;;;654.73;;
295;SDS011;132;48.770;9.200;2024-01-11T13:50:14;693.23;;;660.17;;
295;SDS011;132;48.770;9.200;2024-01-11T13:53:02;614.93;;;585.60;;
295;SDS011;132;48.770;9.200;2024-01-11T13:55:48;617.80;;;588.30;;
295;SDS011;132;48.770;9.200;2024-01-11T13:58:35;559.90;;;533.17;;
295;SDS011;132;48.770;9.200;2024-01-11T14:01:22;525.77;;;500.70;;
295;SDS011;132;48.770;9.200;2024-01-11T14:04:09;490.83;;;467.40;;
295;SDS011;132;48.770;9.200;2024-01-11T14:06:55;467.70;;;445.37;;
295;SDS011;132;48.770;9.200;2024-01-11T14:09:42;441.70;;;420.63;;
295;SDS011;132;48.770;9.200;2024-01-11T14:12:29;380.03;;;361.87;;
295;SDS011;132;48.770;9.200;2024-01-11T14:15:15;286.53;;;272.83;;
295;SDS011;132;48.770;9.200;2024-01-11T14:18:02;78.83;;;75.03;;
295;SDS011;132;48.770;9.200;2024-01-11T14:20:50;54.27;;;32.30;;
295;SDS011;132;48.770;9.200;2024-01-11T14:23:36;55.30;;;32.30;;
295;SDS011;132;48.770;9.200;2024-01-11T14:26:23;62.93;;;32.57;;
295;SDS011;132;48.770;9.200;2024-01-11T14:29:10;63.67;;;34.85;;
295;SDS011;132;48.770;9.200;2024-01-11T14:31:57;61.88;;;32.35;;
295;SDS011;132;48.770;9.200;2024-01-11T14:34:43;63.92;;;33.65;;
295;SDS011;132;48.770;9.200;2024-01-11T14:37:31;69.18;;;34.47;;
295;SDS011;132;48.770;9.200;2024-01-11T14:40:18;61.15;;;32.60;;
295;SDS011;132;48.770;9.200;2024-01-11T14:43:05;59.85;;;30.77;;
295;SDS011;132;48.770;9.200;2024-01-11T14:45:51;66.80;;;31.35;;
295;SDS011;132;48.770;9.200;2024-01-11T14:48:39;62.03;;;30.55;;
295;SDS011;132;48.770;9.200;2024-01-11T14:51:25;65.57;;;32.47;;
295;SDS011;132;48.770;9.200;2024-01-11T14:54:15;65.65;;;31.15;;
295;SDS011;132;48.770;9.200;2024-01-11T14:57:03;62.00;;;30.65;;
295;SDS011;132;48.770;9.200;2024-01-11T14:59:50;68.50;;;32.50;;
295;SDS011;132;48.770;9.200;2024-01-11T15:02:37;65.10;;;31.75;;
295;SDS011;132;48.770;9.200;2024-01-11T15:05:24;66.38;;;30.73;;
295;SDS011;132;48.770;9.200;2024-01-11T15:08:11;65.80;;;31.95;;
295;SDS011;132;48.770;9.200;2024-01-11T15:10:57;63.92;;;30.20;;
295;SDS011;132;48.770;9.200;2024-01-11T15:13:44;64.88;;;31.45;;
295;SDS011;132;48.770;9.200;2024-01-11T15:16:31;66.20;;;30.58;;
295;SDS011;132;48.770;9.200;2024-01-11T15:19:17;69.30;;;30.05;;
295;SDS011;132;48.770;9.200;2024-01-11T15:22:04;64.40;;;31.42;;
295;SDS011;132;48.770;9.200;2024-01-11T15:24:54;63.72;;;30.27;;
295;SDS011;132;48.770;9.200;2024-01-11T15:27:41;78.30;;;31.35;;
295;SDS011;132;48.770;9.200;2024-01-11T15:30:27;65.75;;;29.50;;
295;SDS011;132;48.770;9.200;2024-01-11T15:33:14;66.03;;;30.13;;
295;SDS011;132;48.770;9.200;2024-01-11T15:36:01;76.72;;;33.35;;
295;SDS011;132;48.770;9.200;2024-01-11T15:38:47;69.03;;;31.88;;
295;SDS011;132;48.770;9.200;2024-01-11T15:41:35;68.13;;;32.13;;
295;SDS011;132;48.770;9.200;2024-01-11T15:44:22;70.35;;;31.13;;
295;SDS011;132;48.770;9.200;2024-01-11T15:47:08;69.90;;;30.60;;
295;SDS011;132;48.770;9.200;2024-01-11T15:49:56;65.65;;;29.45;;
295;SDS011;132;48.770;9.200;2024-01-11T15:52:45;81.05;;;35.40;;
295;SDS011;132;48.770;9.200;2024-01-11T15:55:32;69.18;;;32.25;;
295;SDS011;132;48.770;9.200;2024-01-11T15:58:19;73.72;;;34.28;;
295;SDS011;132;48.770;9.200;2024-01-11T16:01:05;64.68;;;30.48;;
295;SDS011;132;48.770;9.200;2024-01-11T16:03:52;73.00;;;33.85;;
295;SDS011;132;48.770;9.200;2024-01-11T16:06:39;80.70;;;34.13;;
295;SDS011;132;48.770;9.200;2024-01-11T16:09:26;77.68;;;32.97;;
295;SDS011;132;48.770;9.200;2024-01-11T16:12:13;77.05;;;34.30;;
295;SDS011;132;48.770;9.200;2024-01-11T16:15:00;71.30;;;31.13;;
295;SDS011;132;48.770;9.200;2024-01-11T16:17:47;66.07;;;31.00;;
295;SDS011;132;48.770;9.200;2024-01-11T16:20:33;69.82;;;32.13;;
295;SDS011;132;48.770;9.200;2024-01-11T16:23:20;74.47;;;32.75;;
295;SDS011;132;48.770;9.200;2024-01-11T16:26:07;77.10;;;34.60;;
295;SDS011;132;48.770;9.200;2024-01-11T16:28:55;75.13;;;34.42;;
295;SDS011;132;48.770;9.200;2024-01-11T16:31:42;70.15;;;32.95;;
295;SDS011;132;48.770;9.200;2024-01-11T16:34:29;71.43;;;32.13;;
295;SDS011;132;48.770;9.200;2024-01-11T16:37:16;69.53;;;31.30;;
295;SDS011;132;48.770;9.200;2024-01-11T16:40:02;69.78;;;32.00;;
295;SDS011;132;48.770;9.200;2024-01-11T16:42:49;74.18;;;32.83;;
295;SDS011;132;48.770;9.200;2024-01-11T16:45:36;77.47;;;32.20;;
295;SDS011;132;48.770;9.200;2024-01-11T16:48:23;73.95;;;31.10;;
295;SDS011;132;48.770;9.200;2024-01-11T16:51:10;71.60;;;32.17;;
295;SDS011;132;48.770;9.200;2024-01-11T16:53:56;66.38;;;31.52;;
295;SDS011;132;48.770;9.200;2024-01-11T16:56:43;69.43;;;32.47;;
295;SDS011;132;48.770;9.200;2024-01-11T16:59:30;68.05;;;30.35;;
295;SDS011;132;48.770;9.200;2024-01-11T17:02:16;75.22;;;32.30;;
295;SDS011;132;48.770;9.200;2024-01-11T17:05:05;78.15;;;33.47;;
295;SDS011;132;48.770;9.200;2024-01-11T17:07:52;77.35;;;34.50;;
295;SDS011;132;48.770;9.200;2024-01-11T17:10:39;69.93;;;33.83;;
295;SDS011;132;48.770;9.200;2024-01-11T17:13:25;79.10;;;34.50;;
295;SDS011;132;48.770;9.200;2024-01-11T17:16:16;68.07;;;30.98;;
295;SDS011;132;48.770;9.200;2024-01-11T17:19:05;77.30;;;32.90;;